Погода Халыбо-Адабашевна неделю

Ростовская область, Россия

30 мая-05 июня
  • 30мая
    Сегодня
    +17°
    +26°
    Облачно с прояснениями
    ВремяПогодаТемператураВлажностьДавлениеВетер, м/сВероятность осадков
    00:00Ясно и безоблачно+17°C91 %757 мм2.1 м/с2 %
    03:00Практически безоблачно+16°C95 %758 мм1.8 м/с2 %
    06:00Небольшая облачность+16°C95 %758 мм1.4 м/с2 %
    09:00Практически безоблачно+21°C78 %757 мм0.9 м/с2 %
    12:00Практически безоблачно+23°C60 %757 мм1.5 м/с2 %
    15:00Облачно с прояснениями+25°C53 %756 мм1.3 м/с8 %
    18:00Облачно с прояснениями+25°C53 %756 мм2.3 м/с22 %
    21:00Пасмурно, дождь+20°C89 %756 мм2.9 м/с62 %
  • 31мая
    Пятница
    +17°
    +26°
    Облачно с прояснениями
    ВремяПогодаТемператураВлажностьДавлениеВетер, м/сВероятность осадков
    00:00Небольшая облачность, ливень+19°C89 %756 мм1.4 м/с59 %
    03:00Облачно с прояснениями, ливень+18°C91 %756 мм1.6 м/с54 %
    06:00Небольшая облачность+18°C92 %756 мм1.6 м/с19 %
    09:00Практически безоблачно+22°C74 %757 мм1.2 м/с5 %
    12:00Практически безоблачно+23°C69 %757 мм2.9 м/с25 %
    15:00Облачно с прояснениями+24°C66 %757 мм4.3 м/с29 %
    18:00Облачно с прояснениями+24°C67 %757 мм4.1 м/с13 %
    21:00Облачно с прояснениями+22°C73 %757 мм3.2 м/с18 %
  • 01июня
    Суббота
    +18°
    +29°
    Практически безоблачно
    ВремяПогодаТемператураВлажностьДавлениеВетер, м/сВероятность осадков
    00:00Ясно и безоблачно+19°C86 %757 мм1.2 м/с10 %
    03:00Ясно и безоблачно+18°C87 %757 мм2.5 м/с7 %
    06:00Ясно и безоблачно+18°C84 %758 мм2.9 м/с2 %
    09:00Облачно с прояснениями+24°C60 %758 мм2.7 м/с2 %
    12:00Ясно и безоблачно+27°C45 %759 мм4.3 м/с3 %
    15:00Практически безоблачно+26°C55 %759 мм6.4 м/с10 %
    18:00Ясно и безоблачно+25°C66 %758 мм6.6 м/с3 %
    21:00Ясно и безоблачно+21°C72 %759 мм5.1 м/с2 %
  • 02июня
    Воскресенье
    +18°
    +27°
    Практически безоблачно
    ВремяПогодаТемператураВлажностьДавлениеВетер, м/сВероятность осадков
    00:00Ясно и безоблачно+20°C77 %759 мм3.4 м/с2 %
    03:00Ясно и безоблачно+19°C73 %759 мм2.8 м/с2 %
    06:00Ясно и безоблачно+19°C73 %760 мм2.2 м/с2 %
    09:00Ясно и безоблачно+25°C64 %760 мм2.9 м/с2 %
    12:00Практически безоблачно+27°C61 %760 мм5.1 м/с2 %
    15:00Практически безоблачно+27°C55 %759 мм6.8 м/с4 %
    18:00Облачно с прояснениями+25°C75 %759 мм6.0 м/с2 %
    21:00Небольшая облачность+22°C85 %759 мм4.7 м/с2 %
  • 03июня
    Понедельник
    +19°
    +27°
    Ясно и безоблачно
    ВремяПогодаТемператураВлажностьДавлениеВетер, м/сВероятность осадков
    00:00Ясно и безоблачно+20°C88 %759 мм3.7 м/с2 %
    03:00Ясно и безоблачно+19°C90 %758 мм2.7 м/с2 %
    06:00Ясно и безоблачно+20°C87 %758 мм3.6 м/с2 %
    09:00Ясно и безоблачно+23°C74 %758 мм4.5 м/с2 %
    12:00Практически безоблачно+27°C61 %758 мм6.2 м/с4 %
    15:00Ясно и безоблачно+27°C62 %757 мм6.8 м/с6 %
    18:00Ясно и безоблачно+25°C62 %757 мм5.9 м/с3 %
    21:00Ясно и безоблачно+22°C75 %757 мм4.2 м/с2 %
Мы используем cookies
Соглашаюсь